Accueil
METAR-TAF:

METAR-TAF

Aéroports :

Aéroport d'Almeria

Almería, Espagne

latitude: 36-51N, longitude: 002-23W, altitude: 15 m

Observation

Le bulletin a été fait il y a 19 minutes, à 06:30 UTC
Vent 6 kt de nord-est
Température 15°C
Humidité 67%
Pression 1029 hPa
Visibilité 10 km ou plus
Ciel couvert à une hauteur de 4500 ft

METAR: LEAM 190630Z 05006KT 9999 OVC045 15/09 Q1029

Heure: 07:49 (06:49 UTC)

Prévision

Le bulletin a été fait il y a 4 heures et 49 minutes, à 02:00 UTC
Prévision valable du 19 à 03 UTC au 20 à 03 UTC
Vent 8 kt de est
Visibilité 10 km ou plus
Quelques nuages à une hauteur de 5000 ft
Evoluant progressivement
du 19 à 07 UTC au 19 à 09 UTC
Vent 18 kt de est
Evoluant progressivement
du 19 à 18 UTC au 19 à 20 UTC
Vent 5 kt de nord

TAF: LEAM 190200Z 1903/2003 09008KT 9999 FEW050 TX19/1915Z TN12/1907Z BECMG 1907/1909 09018KT BECMG 1918/1920 36005KT

Observations et prévisions météorologiques de plus de 4000 aéroports (messages METAR et TAF).

Les stations disponibles sont représentées par des disques jaunes et rouges sur la carte.

Passer la souris dessus pour voir le nom de la station.

Cliquer dessus pour voir les observations et prévisions météorologiques.

Pour changer de carte: cliquez sur les boutons verts avec une croix noire pour zoomer, sur le bouton vert avec un tiret pour effectuer un zoom arrière, ou sur les flèches vertes pour les cartes adjacentes.


METAR-TAF: